Time;durP1;ratioP1;P1;durP2;ratioP2;P2;SDS_P1;SDS_P2;PMS_P1;PMS_P2;Temp;Humidity;BMP_temperature;BMP_pressure;BME280_temperature;BME280_humidity;BME280_pressure;Samples;Min_cycle;Max_cycle;Signal;HPM_P1;HPM_P2
2022/11/08 00:01:38;;;;;;;8.77;2.92;;;;;;;11.09;91.85;100855.81;5010301;28;20056;-68
2022/11/08 00:04:06;;;;;;;8.85;3.35;;;;;;;11.11;91.75;100857.47;5045741;28;20040;-69
2022/11/08 00:14:47;;;;;;;4.88;2.83;;;;;;;11.27;90.47;100854.03;5027219;28;20084;-68
2022/11/08 00:17:14;;;;;;;6.65;3.08;;;;;;;11.05;92.14;100856.91;5018989;28;20037;-68
2022/11/08 00:19:41;;;;;;;8.05;2.78;;;;;;;10.72;93.89;100869.97;5028481;28;20077;-69
2022/11/08 00:22:09;;;;;;;8.50;3.10;;;;;;;11.08;92.16;100860.25;5027789;28;20060;-68
2022/11/08 00:24:36;;;;;;;6.80;2.95;;;;;;;10.96;92.44;100862.66;5017597;28;20455;-68
2022/11/08 00:27:04;;;;;;;11.90;3.85;;;;;;;11.16;91.90;100858.06;5028556;28;20052;-68
2022/11/08 00:29:31;;;;;;;9.75;3.00;;;;;;;11.08;92.32;100856.78;5027283;28;20516;-68
2022/11/08 00:31:57;;;;;;;7.68;3.42;;;;;;;11.36;90.69;100853.53;5018067;28;20098;-68
2022/11/08 00:34:24;;;;;;;5.40;3.10;;;;;;;11.21;91.06;100857.81;5028933;28;20052;-68
2022/11/08 00:36:51;;;;;;;12.80;3.25;;;;;;;10.83;93.98;100861.59;5026962;28;20480;-68
2022/11/08 00:39:19;;;;;;;7.03;2.78;;;;;;;10.84;93.76;100863.25;5016978;28;20115;-68
2022/11/08 00:41:46;;;;;;;9.18;2.72;;;;;;;10.95;94.30;100860.94;5027819;28;20045;-68
2022/11/08 00:44:12;;;;;;;7.72;3.10;;;;;;;11.11;92.50;100856.63;5027690;28;20045;-68
2022/11/08 00:46:40;;;;;;;10.35;2.80;;;;;;;11.07;92.65;100855.06;5017409;28;20045;-68
2022/11/08 00:49:07;;;;;;;8.70;3.15;;;;;;;10.82;94.24;100867.75;5028159;28;20069;-68
2022/11/08 00:51:33;;;;;;;13.18;3.30;;;;;;;10.96;93.36;100865.28;5026776;28;20053;-68
2022/11/08 00:54:00;;;;;;;6.90;3.08;;;;;;;11.23;91.65;100853.34;5017127;28;20041;-68
2022/11/08 00:56:28;;;;;;;9.90;3.13;;;;;;;11.18;92.13;100856.22;5027986;28;20052;-68
2022/11/08 00:58:54;;;;;;;9.25;3.05;;;;;;;11.28;91.24;100855.72;5025757;28;20078;-68
2022/11/08 01:01:22;;;;;;;8.57;3.28;;;;;;;11.61;89.30;100846.03;5017159;28;20040;-68
2022/11/08 01:03:49;;;;;;;12.80;2.97;;;;;;;12.22;85.52;100837.44;5026630;28;20052;-68
2022/11/08 01:06:17;;;;;;;10.70;3.55;;;;;;;11.55;88.44;100841.97;5023753;28;20052;-68
2022/11/08 01:08:44;;;;;;;9.63;3.00;;;;;;;11.44;89.09;100844.34;5017516;28;20044;-68
2022/11/08 01:11:13;;;;;;;9.43;3.60;;;;;;;11.42;89.50;100846.19;5026983;28;20049;-68
2022/11/08 01:13:41;;;;;;;8.57;3.00;;;;;;;11.59;88.72;100853.16;5015589;28;20053;-69
2022/11/08 01:16:10;;;;;;;7.60;3.33;;;;;;;11.56;88.12;100851.56;5007332;28;20250;-68
2022/11/08 01:18:37;;;;;;;9.85;3.80;;;;;;;11.17;90.57;100846.63;5016894;28;20052;-68
2022/11/08 01:21:04;;;;;;;9.23;3.25;;;;;;;11.15;90.88;100847.66;5007416;28;20049;-69
2022/11/08 01:23:32;;;;;;;10.20;3.28;;;;;;;11.37;88.96;100850.00;4997666;28;20052;-68
2022/11/08 01:26:03;;;;;;;9.45;3.58;;;;;;;11.13;91.57;100854.75;5006308;28;20057;-68
2022/11/08 01:28:29;;;;;;;6.90;3.22;;;;;;;11.71;87.86;100847.28;5007940;28;20405;-68
2022/11/08 01:30:57;;;;;;;11.18;3.53;;;;;;;11.76;87.18;100847.03;4997886;28;20490;-68
2022/11/08 01:33:23;;;;;;;8.65;3.20;;;;;;;11.45;89.18;100848.66;5006156;28;20045;-68
2022/11/08 01:35:50;;;;;;;12.77;3.30;;;;;;;11.66;88.08;100852.75;5008333;28;20053;-68
2022/11/08 01:38:16;;;;;;;7.40;3.15;;;;;;;11.87;86.23;100850.75;4997576;28;20053;-69
2022/11/08 01:40:45;;;;;;;11.15;3.40;;;;;;;11.96;84.58;100849.41;5006142;28;20421;-68
2022/11/08 01:43:38;;;;;;;5.80;2.95;;;;;;;11.80;83.93;100845.91;5007193;28;20413;-68
2022/11/08 01:46:34;;;;;;;8.77;3.15;;;;;;;11.30;87.52;100840.75;5006126;28;20402;-68
2022/11/08 01:49:31;;;;;;;8.45;3.15;;;;;;;11.09;89.60;100829.59;5007197;28;20052;-68
2022/11/08 01:52:06;;;;;;;7.50;2.97;;;;;;;11.24;89.80;100836.66;5027801;28;20056;-68
2022/11/08 01:54:36;;;;;;;9.07;2.97;;;;;;;11.61;87.71;100833.75;5020125;28;20060;-68
2022/11/08 01:57:06;;;;;;;7.93;3.22;;;;;;;11.41;88.67;100843.66;4998407;28;20053;-68
2022/11/08 01:59:36;;;;;;;10.57;3.20;;;;;;;11.58;87.93;100841.81;5005676;28;20052;-68
2022/11/08 02:02:04;;;;;;;9.48;2.95;;;;;;;11.32;90.31;100831.00;5015895;28;20512;-68
2022/11/08 02:04:32;;;;;;;7.30;3.03;;;;;;;11.27;89.98;100835.66;5006545;28;20046;-68
2022/11/08 02:06:59;;;;;;;8.32;3.38;;;;;;;10.78;93.10;100842.59;4986682;28;20056;-68
2022/11/08 02:09:25;;;;;;;10.65;3.67;;;;;;;10.40;96.02;100847.97;4987888;28;20049;-68
2022/11/08 02:11:53;;;;;;;12.98;3.72;;;;;;;10.38;96.64;100854.25;4977982;28;20553;-68
2022/11/08 02:14:21;;;;;;;10.98;3.90;;;;;;;10.58;96.13;100847.06;5018198;28;20300;-68
2022/11/08 02:16:47;;;;;;;9.50;3.22;;;;;;;10.83;93.90;100845.84;5026429;28;20497;-68
2022/11/08 02:19:22;;;;;;;12.77;3.20;;;;;;;10.92;93.20;100845.38;5017848;28;20472;-68
2022/11/08 02:21:54;;;;;;;7.85;3.40;;;;;;;11.34;89.58;100837.88;5028000;28;20060;-68
2022/11/08 02:24:22;;;;;;;11.55;3.38;;;;;;;11.49;87.69;100836.22;5018331;28;20037;-68
2022/11/08 02:26:52;;;;;;;10.77;3.15;;;;;;;11.36;89.18;100838.63;5030460;28;20493;-68
2022/11/08 02:29:27;;;;;;;9.15;2.95;;;;;;;11.11;91.43;100833.84;5028781;28;20107;-68
2022/11/08 02:31:54;;;;;;;10.63;3.72;;;;;;;11.04;90.53;100845.59;5012409;28;20074;-68
2022/11/08 02:34:24;;;;;;;7.00;3.20;;;;;;;10.87;92.33;100834.25;5028783;28;20041;-68
2022/11/08 02:36:52;;;;;;;8.43;3.30;;;;;;;10.98;91.78;100834.53;5026311;28;20049;-68
2022/11/08 02:39:18;;;;;;;9.88;3.28;;;;;;;11.22;89.91;100828.03;5029914;28;20456;-68
2022/11/08 02:41:46;;;;;;;9.48;3.08;;;;;;;10.97;91.09;100833.72;5030130;28;20409;-68
2022/11/08 02:44:12;;;;;;;10.77;3.33;;;;;;;11.22;90.61;100828.03;5022664;28;20416;-68
2022/11/08 02:46:39;;;;;;;7.65;2.80;;;;;;;11.40;86.57;100827.06;5029583;28;20058;-68
2022/11/08 02:49:05;;;;;;;8.13;3.60;;;;;;;11.67;85.51;100825.56;5028168;28;20049;-68
2022/11/08 02:51:32;;;;;;;12.35;5.03;;;;;;;11.31;88.07;100829.34;5029043;28;20045;-68
2022/11/08 02:53:58;;;;;;;11.30;5.65;;;;;;;11.49;86.91;100818.66;5024198;28;20679;-68
2022/11/08 02:56:24;;;;;;;8.95;4.82;;;;;;;11.25;88.66;100817.38;5028121;28;20674;-68
2022/11/08 02:58:52;;;;;;;11.20;6.20;;;;;;;11.11;89.67;100822.50;5029551;28;20456;-68
2022/11/08 03:01:19;;;;;;;10.05;4.70;;;;;;;11.22;90.08;100820.16;5023956;28;20057;-67
2022/11/08 03:03:45;;;;;;;10.50;4.60;;;;;;;10.97;91.62;100822.38;5047412;28;20413;-68
2022/11/08 03:06:12;;;;;;;7.68;3.70;;;;;;;10.98;90.96;100811.78;5029554;28;20045;-68
2022/11/08 03:08:38;;;;;;;11.60;3.83;;;;;;;10.81;91.76;100824.09;5019133;28;20405;-68
2022/11/08 03:11:05;;;;;;;6.90;3.47;;;;;;;11.07;89.90;100829.69;5028071;28;20041;-68
2022/11/08 03:13:32;;;;;;;8.90;3.88;;;;;;;11.04;90.35;100829.84;5028691;28;20052;-67
2022/11/08 03:16:02;;;;;;;11.10;3.50;;;;;;;11.21;89.60;100821.06;5019695;28;20398;-68
2022/11/08 03:18:28;;;;;;;8.68;3.08;;;;;;;10.90;91.31;100826.25;5027539;28;20408;-68
2022/11/08 03:20:55;;;;;;;7.25;3.50;;;;;;;10.96;91.29;100820.66;5028419;28;20524;-67
2022/11/08 03:23:21;;;;;;;9.77;3.55;;;;;;;10.82;93.40;100834.50;5017117;28;20537;-67
2022/11/08 03:25:48;;;;;;;11.57;3.40;;;;;;;10.87;91.96;100821.13;5018787;28;20044;-67
2022/11/08 03:28:14;;;;;;;11.95;4.30;;;;;;;10.50;94.51;100840.50;5028913;28;20041;-67
2022/11/08 03:30:41;;;;;;;8.18;3.08;;;;;;;10.26;96.81;100834.72;5018405;28;20071;-67
2022/11/08 03:33:08;;;;;;;12.65;3.70;;;;;;;10.06;97.36;100840.03;5027110;28;20519;-68
2022/11/08 03:35:35;;;;;;;10.65;3.70;;;;;;;10.39;96.03;100838.41;5029682;28;20049;-67
2022/11/08 03:38:01;;;;;;;10.35;3.63;;;;;;;10.30;96.49;100841.50;5019065;28;20102;-68
2022/11/08 03:40:28;;;;;;;13.23;3.80;;;;;;;10.51;94.73;100837.81;5027231;28;20054;-67
2022/11/08 03:42:56;;;;;;;8.70;3.25;;;;;;;10.79;92.71;100839.88;5028464;28;20188;-67
2022/11/08 03:45:22;;;;;;;9.85;3.75;;;;;;;10.42;94.23;100845.31;5017471;28;20546;-67
2022/11/08 03:47:49;;;;;;;10.88;4.40;;;;;;;10.37;95.05;100840.28;5027262;28;20044;-68
2022/11/08 03:50:17;;;;;;;12.20;4.03;;;;;;;10.44;94.50;100836.44;5028683;28;20041;-67
2022/11/08 03:52:45;;;;;;;14.35;4.07;;;;;;;10.74;92.72;100834.03;5020244;28;20397;-67
2022/11/08 03:55:12;;;;;;;12.68;4.20;;;;;;;10.51;93.20;100840.44;5027746;28;20393;-67
2022/11/08 03:57:39;;;;;;;12.75;3.78;;;;;;;10.65;91.88;100840.59;5028578;28;20049;-67
2022/11/08 04:00:08;;;;;;;10.50;4.18;;;;;;;10.55;92.38;100842.00;5018023;28;20049;-67
2022/11/08 04:02:35;;;;;;;6.72;3.38;;;;;;;10.80;90.63;100838.97;5037988;28;20041;-67
2022/11/08 04:05:02;;;;;;;9.07;3.50;;;;;;;10.84;90.09;100829.16;5037196;28;20428;-67
2022/11/08 04:07:29;;;;;;;8.30;3.58;;;;;;;11.07;88.70;100834.94;5021362;28;20452;-67
2022/11/08 04:09:56;;;;;;;9.10;3.90;;;;;;;10.61;90.15;100831.19;5026398;28;20390;-67
2022/11/08 04:15:14;;;;;;;12.68;4.05;;;;;;;10.74;89.55;100832.28;5027480;28;20056;-67
2022/11/08 04:23:11;;;;;;;10.15;4.32;;;;;;;10.65;91.33;100824.00;5018866;28;20129;-66
2022/11/08 04:25:37;;;;;;;9.95;3.65;;;;;;;10.38;93.80;100828.03;5027532;28;20052;-66
2022/11/08 04:28:04;;;;;;;7.60;3.60;;;;;;;9.92;97.22;100824.13;5027465;28;20060;-66
2022/11/08 04:30:31;;;;;;;8.85;3.65;;;;;;;10.44;93.85;100807.59;5017630;28;20049;-66
2022/11/08 04:32:59;;;;;;;12.73;4.50;;;;;;;10.10;95.63;100812.75;5026439;28;20041;-66
2022/11/08 04:35:26;;;;;;;8.80;3.83;;;;;;;10.04;96.25;100807.81;5028734;28;20099;-67
2022/11/08 04:37:52;;;;;;;8.73;3.45;;;;;;;9.96;96.83;100807.34;5016921;28;20049;-67
2022/11/08 04:40:20;;;;;;;7.10;3.20;;;;;;;10.60;93.50;100808.53;5026304;28;20048;-67
2022/11/08 04:42:46;;;;;;;10.18;3.85;;;;;;;10.71;92.28;100802.72;5026976;28;20045;-67
2022/11/08 04:45:13;;;;;;;10.85;3.90;;;;;;;10.68;90.59;100805.50;5017215;28;20460;-67
2022/11/08 04:47:39;;;;;;;8.70;3.60;;;;;;;10.49;91.93;100802.13;5025583;28;20552;-67
2022/11/08 04:50:06;;;;;;;6.63;3.50;;;;;;;10.02;95.65;100809.66;5026871;28;20508;-66
2022/11/08 04:52:33;;;;;;;8.50;4.07;;;;;;;9.91;96.40;100811.94;5017764;28;20487;-66
2022/11/08 04:54:59;;;;;;;11.13;4.00;;;;;;;9.86;96.17;100804.31;5018068;28;20049;-66
2022/11/08 04:57:28;;;;;;;10.38;4.00;;;;;;;10.00;94.70;100798.41;5027789;28;20098;-66
2022/11/08 04:59:54;;;;;;;8.65;3.90;;;;;;;10.21;93.97;100790.38;5016616;28;20045;-66
2022/11/08 05:02:21;;;;;;;13.65;3.85;;;;;;;10.33;92.62;100785.47;5036431;28;20123;-66
2022/11/08 05:04:47;;;;;;;7.18;3.97;;;;;;;10.07;95.66;100791.94;5044986;28;20044;-67
2022/11/08 05:07:14;;;;;;;10.15;4.03;;;;;;;9.83;95.50;100796.59;5016269;28;20056;-67
2022/11/08 05:09:40;;;;;;;7.07;3.35;;;;;;;10.29;92.38;100804.88;5026470;28;20140;-67
2022/11/08 05:12:07;;;;;;;9.88;3.90;;;;;;;9.93;93.16;100805.72;5027863;28;20053;-67
2022/11/08 05:14:35;;;;;;;10.90;3.58;;;;;;;10.26;92.06;100803.25;5016924;28;20048;-67
2022/11/08 05:17:01;;;;;;;10.13;4.18;;;;;;;10.13;92.83;100802.13;5027202;28;20049;-67
2022/11/08 05:24:56;;;;;;;6.55;3.42;;;;;;;9.78;94.77;100802.06;5016425;28;20063;-67
2022/11/08 05:27:23;;;;;;;11.48;3.70;;;;;;;10.18;92.86;100815.88;5027891;28;20048;-68
2022/11/08 05:29:50;;;;;;;9.15;3.80;;;;;;;9.79;96.62;100814.22;5025980;28;20044;-68
2022/11/08 05:32:18;;;;;;;8.95;3.63;;;;;;;10.02;94.66;100807.03;5017286;28;20512;-68
2022/11/08 05:34:44;;;;;;;13.57;3.95;;;;;;;10.14;92.58;100803.81;5026417;28;20052;-68
2022/11/08 05:37:11;;;;;;;11.75;4.07;;;;;;;10.00;94.29;100801.88;5026401;28;20063;-68
2022/11/08 05:39:37;;;;;;;9.43;3.65;;;;;;;9.83;94.87;100793.97;5015928;28;20045;-67
2022/11/08 05:42:04;;;;;;;9.02;3.60;;;;;;;9.81;95.19;100794.97;5026892;28;20052;-67
2022/11/08 05:44:30;;;;;;;9.40;3.85;;;;;;;9.40;98.34;100795.13;5025094;28;20467;-67
2022/11/08 05:46:58;;;;;;;11.02;3.90;;;;;;;9.48;99.27;100794.78;5016394;28;20428;-67
2022/11/08 05:49:25;;;;;;;11.88;4.43;;;;;;;9.72;96.26;100796.25;5027161;28;20045;-67
2022/11/08 05:51:51;;;;;;;10.50;3.90;;;;;;;9.83;95.62;100804.44;5026534;28;20053;-68
2022/11/08 05:54:17;;;;;;;9.27;4.63;;;;;;;9.80;96.21;100809.81;5016330;28;20049;-68
2022/11/08 05:56:44;;;;;;;12.02;3.78;;;;;;;9.95;95.07;100800.38;5029340;28;20049;-67
2022/11/08 05:59:10;;;;;;;9.82;4.35;;;;;;;9.90;94.47;100802.41;5029212;28;20060;-67
2022/11/08 06:01:37;;;;;;;7.93;4.30;;;;;;;9.93;95.28;100794.38;5027949;28;20041;-67
2022/11/08 06:04:05;;;;;;;16.30;4.45;;;;;;;9.99;95.54;100792.31;5030382;28;20053;-68
2022/11/08 06:06:31;;;;;;;7.07;3.40;;;;;;;9.48;98.71;100797.41;5028126;28;20090;-68
2022/11/08 06:08:58;;;;;;;15.90;4.43;;;;;;;9.69;97.73;100802.47;5028538;28;20053;-67
2022/11/08 06:11:27;;;;;;;10.15;3.97;;;;;;;9.74;96.59;100792.66;5029001;28;20437;-67
2022/11/08 06:13:54;;;;;;;12.50;3.97;;;;;;;9.92;94.94;100803.16;5027111;28;20075;-67
2022/11/08 06:16:22;;;;;;;9.02;4.00;;;;;;;9.82;96.96;100796.69;5001274;28;20049;-68
2022/11/08 06:18:49;;;;;;;10.32;4.28;;;;;;;10.04;94.87;100799.97;5022777;28;20051;-68
2022/11/08 06:21:19;;;;;;;13.55;5.03;;;;;;;10.08;94.29;100801.50;5029337;28;20067;-68
2022/11/08 06:23:45;;;;;;;14.90;6.05;;;;;;;9.95;95.36;100805.63;5020138;28;20045;-68
2022/11/08 06:26:12;;;;;;;10.00;4.65;;;;;;;9.92;95.16;100811.03;5030095;28;20055;-68
2022/11/08 06:28:38;;;;;;;12.05;4.50;;;;;;;9.61;96.66;100811.59;5029187;28;20061;-67
2022/11/08 06:31:05;;;;;;;14.30;4.60;;;;;;;9.92;95.29;100818.88;5019959;28;20540;-67
2022/11/08 06:33:32;;;;;;;10.77;4.40;;;;;;;9.93;94.88;100812.72;5029158;28;20438;-67
2022/11/08 06:35:58;;;;;;;8.63;4.35;;;;;;;10.32;91.14;100812.59;5029319;28;20076;-68
2022/11/08 06:38:26;;;;;;;27.52;5.35;;;;;;;9.76;94.27;100803.88;5019949;28;20040;-68
2022/11/08 06:40:53;;;;;;;12.82;5.03;;;;;;;10.02;93.53;100807.03;5030178;28;20048;-68
2022/11/08 06:43:19;;;;;;;11.80;4.88;;;;;;;9.90;93.53;100810.25;5029616;28;20052;-68
2022/11/08 06:45:46;;;;;;;9.90;4.47;;;;;;;9.86;94.39;100813.94;5019792;28;20516;-68
2022/11/08 06:48:12;;;;;;;10.88;4.38;;;;;;;9.94;93.91;100812.63;5030386;28;20048;-68
2022/11/08 06:50:38;;;;;;;12.48;4.78;;;;;;;9.81;94.59;100815.91;5030022;28;20041;-68
2022/11/08 06:53:07;;;;;;;8.88;4.13;;;;;;;9.48;95.93;100813.97;5023037;28;20049;-67
2022/11/08 06:55:36;;;;;;;12.00;5.10;;;;;;;9.83;94.39;100809.69;5029752;28;20405;-67
2022/11/08 06:58:03;;;;;;;8.88;4.50;;;;;;;9.55;96.61;100817.13;5029101;28;20390;-67
2022/11/08 07:00:30;;;;;;;15.32;4.72;;;;;;;9.98;93.91;100824.66;5018963;28;20044;-67
2022/11/08 07:02:59;;;;;;;12.73;4.70;;;;;;;9.73;96.18;100816.28;5038992;28;20084;-67
2022/11/08 07:05:26;;;;;;;5.65;3.72;;;;;;;9.77;94.72;100818.69;5046643;28;20045;-67
2022/11/08 07:07:53;;;;;;;9.93;3.95;;;;;;;9.63;96.48;100808.00;5044334;28;20052;-67
2022/11/08 07:10:21;;;;;;;9.20;4.20;;;;;;;9.52;98.06;100812.03;5047042;28;20045;-67
2022/11/08 07:12:50;;;;;;;8.38;4.60;;;;;;;9.72;96.40;100807.56;5045604;28;20048;-67
2022/11/08 07:15:17;;;;;;;9.85;3.95;;;;;;;9.65;97.25;100805.31;5045382;28;20106;-67
2022/11/08 07:17:43;;;;;;;14.57;4.47;;;;;;;10.02;94.65;100801.78;5046027;28;20493;-67
2022/11/08 07:20:11;;;;;;;12.38;4.25;;;;;;;10.00;94.41;100803.66;5047139;28;20567;-67
2022/11/08 07:22:37;;;;;;;6.90;4.28;;;;;;;10.32;93.54;100797.72;5045446;28;20045;-67
2022/11/08 07:25:04;;;;;;;11.38;4.28;;;;;;;10.30;93.23;100798.72;5046661;28;20390;-68
2022/11/08 07:27:31;;;;;;;12.07;4.43;;;;;;;10.31;93.69;100809.09;5046045;28;20049;-67
2022/11/08 07:29:59;;;;;;;7.30;3.65;;;;;;;10.95;90.12;100797.97;5044399;28;20508;-66
2022/11/08 07:32:26;;;;;;;9.98;4.03;;;;;;;11.31;88.37;100795.19;5045516;28;20561;-67
2022/11/08 07:34:52;;;;;;;9.82;3.38;;;;;;;11.58;87.18;100801.56;5047047;28;20523;-69
2022/11/08 07:37:19;;;;;;;10.27;3.42;;;;;;;11.85;85.89;100796.59;5044465;28;20481;-68
2022/11/08 07:39:45;;;;;;;7.03;3.15;;;;;;;12.01;85.26;100800.91;5045659;28;20045;-68
2022/11/08 07:42:12;;;;;;;6.18;2.80;;;;;;;12.28;83.85;100800.25;5047489;28;20052;-68
2022/11/08 07:44:38;;;;;;;7.53;3.25;;;;;;;13.30;79.15;100797.66;5046452;28;20649;-68
2022/11/08 07:47:06;;;;;;;12.68;3.05;;;;;;;13.45;76.89;100794.88;5046718;28;20045;-68
2022/11/08 07:49:32;;;;;;;5.60;3.35;;;;;;;13.45;76.46;100802.78;5044312;28;20040;-68
2022/11/08 07:51:59;;;;;;;8.48;2.92;;;;;;;13.68;75.19;100800.50;5044262;28;20045;-68
2022/11/08 07:54:25;;;;;;;7.38;2.70;;;;;;;13.24;77.68;100792.75;5044713;28;20420;-68
2022/11/08 07:56:51;;;;;;;5.88;2.72;;;;;;;13.25;76.85;100794.44;5045021;28;20529;-68
2022/11/08 07:59:18;;;;;;;7.15;3.28;;;;;;;12.86;77.61;100784.53;5045128;28;20094;-67
2022/11/08 08:01:44;;;;;;;6.68;2.95;;;;;;;12.94;79.22;100788.38;5046018;28;20052;-67
2022/11/08 08:04:12;;;;;;;7.60;3.53;;;;;;;13.73;75.52;100794.00;5045001;28;20040;-67
2022/11/08 08:06:39;;;;;;;6.60;2.95;;;;;;;14.29;73.73;100792.13;5018825;28;20052;-67
2022/11/08 08:09:05;;;;;;;5.10;2.97;;;;;;;14.26;73.77;100787.06;5026937;28;20111;-67
2022/11/08 08:11:32;;;;;;;8.95;3.00;;;;;;;13.35;76.90;100785.88;5027640;28;20044;-67
2022/11/08 08:13:58;;;;;;;8.55;3.38;;;;;;;13.10;78.20;100781.28;5018040;28;20497;-67
2022/11/08 08:16:25;;;;;;;7.70;2.70;;;;;;;13.13;79.47;100789.00;5028077;28;20049;-67
2022/11/08 08:18:51;;;;;;;9.07;3.30;;;;;;;12.83;80.80;100787.34;5026153;28;20053;-67
2022/11/08 08:21:19;;;;;;;8.95;4.05;;;;;;;12.65;81.57;100795.41;5021159;28;20056;-67
2022/11/08 08:23:46;;;;;;;6.88;3.10;;;;;;;12.67;81.63;100797.94;5025192;28;20053;-67
2022/11/08 08:26:12;;;;;;;8.80;2.83;;;;;;;12.69;81.47;100786.38;5025091;28;20041;-67
2022/11/08 08:28:39;;;;;;;10.25;3.38;;;;;;;12.49;83.35;100784.06;5022106;28;20045;-67
2022/11/08 08:31:06;;;;;;;8.27;3.50;;;;;;;13.45;78.87;100784.34;5029743;28;20042;-67
2022/11/08 08:33:33;;;;;;;8.70;2.90;;;;;;;13.53;79.37;100784.72;5027156;28;20079;-67
2022/11/08 08:36:00;;;;;;;5.70;2.80;;;;;;;14.30;75.96;100786.72;5024139;28;20056;-67
2022/11/08 08:38:29;;;;;;;6.32;2.85;;;;;;;14.45;75.42;100785.72;5027886;28;20885;-67
2022/11/08 08:40:55;;;;;;;10.43;3.08;;;;;;;14.51;74.37;100789.78;5027296;28;20517;-68
2022/11/08 08:43:21;;;;;;;6.25;2.60;;;;;;;14.07;75.03;100787.41;5018148;28;20040;-67
2022/11/08 08:45:48;;;;;;;5.75;2.78;;;;;;;13.52;77.90;100780.41;5027811;28;20117;-67
2022/11/08 08:48:15;;;;;;;7.78;3.03;;;;;;;14.32;75.68;100778.72;5026456;28;20714;-67
2022/11/08 08:50:41;;;;;;;5.07;2.72;;;;;;;14.33;76.64;100778.63;5024296;28;20409;-67
2022/11/08 08:53:08;;;;;;;12.60;3.05;;;;;;;14.75;73.95;100776.69;5027250;28;20046;-68
2022/11/08 08:55:38;;;;;;;8.02;2.92;;;;;;;14.37;74.57;100777.50;5027952;28;20064;-67
2022/11/08 08:58:05;;;;;;;10.68;3.50;;;;;;;13.97;76.77;100776.59;5018383;28;20140;-67
2022/11/08 09:00:32;;;;;;;6.07;3.67;;;;;;;15.04;73.40;100762.31;5028134;28;20045;-69
2022/11/08 09:03:02;;;;;;;9.75;3.40;;;;;;;15.68;71.28;100771.84;5027381;28;20071;-68
2022/11/08 09:05:29;;;;;;;8.38;2.97;;;;;;;15.66;71.02;100770.28;5017333;28;20412;-68
2022/11/08 09:07:55;;;;;;;7.40;2.88;;;;;;;16.10;68.74;100770.53;5028345;28;20052;-68
2022/11/08 09:10:22;;;;;;;7.40;3.47;;;;;;;16.84;67.89;100767.53;5025545;28;20073;-68
2022/11/08 09:12:49;;;;;;;10.02;2.85;;;;;;;17.40;64.35;100765.75;5016755;28;20048;-68
2022/11/08 09:15:16;;;;;;;6.70;2.55;;;;;;;17.52;64.50;100761.25;5027476;28;20079;-68
2022/11/08 09:17:43;;;;;;;6.75;2.42;;;;;;;18.20;62.52;100760.97;5025832;28;20048;-69
2022/11/08 09:20:11;;;;;;;5.82;2.58;;;;;;;16.58;67.28;100751.94;5016888;28;20041;-69
2022/11/08 09:22:37;;;;;;;6.32;2.55;;;;;;;17.73;65.34;100753.41;5028070;28;20128;-69
2022/11/08 09:25:05;;;;;;;6.22;2.30;;;;;;;17.76;63.17;100740.75;5026901;28;20048;-69
2022/11/08 09:27:32;;;;;;;4.93;2.15;;;;;;;17.71;63.26;100745.56;5016723;28;20049;-69
2022/11/08 09:29:59;;;;;;;3.80;2.17;;;;;;;18.03;62.47;100748.25;5026674;28;20041;-69
2022/11/08 09:32:27;;;;;;;4.55;2.28;;;;;;;17.67;63.23;100745.94;5028906;28;20049;-69
2022/11/08 09:34:54;;;;;;;8.82;2.60;;;;;;;17.34;63.97;100741.50;5021616;28;20106;-68
2022/11/08 09:37:20;;;;;;;6.00;2.60;;;;;;;17.70;63.82;100740.41;5031732;28;20041;-68
2022/11/08 09:39:46;;;;;;;5.47;2.65;;;;;;;17.64;63.47;100741.72;5029843;28;20052;-68
2022/11/08 09:42:46;;;;;;;6.40;2.17;;;;;;;17.08;65.84;100748.88;5021971;28;20040;-68
2022/11/08 09:45:25;;;;;;;4.43;2.20;;;;;;;16.90;67.03;100743.22;5030973;28;20049;-68
2022/11/08 09:47:57;;;;;;;6.60;2.35;;;;;;;16.77;67.43;100742.47;5031052;28;20413;-68
2022/11/08 09:50:30;;;;;;;7.90;2.40;;;;;;;16.61;67.13;100735.81;5029983;28;20044;-68
2022/11/08 09:53:06;;;;;;;7.60;2.15;;;;;;;16.21;68.08;100732.69;5020305;28;20053;-69
2022/11/08 09:55:38;;;;;;;4.80;2.13;;;;;;;15.44;72.01;100734.81;5030624;28;20083;-69
2022/11/08 09:58:21;;;;;;;6.32;2.40;;;;;;;16.57;69.39;100723.78;5021501;28;20401;-70
2022/11/08 10:00:51;;;;;;;6.97;2.60;;;;;;;17.46;65.21;100722.81;5030605;28;20497;-69
2022/11/08 10:03:18;;;;;;;6.25;2.65;;;;;;;17.50;64.56;100721.63;5029373;28;20056;-69
2022/11/08 10:05:57;;;;;;;5.43;2.35;;;;;;;17.72;64.44;100727.84;5029875;28;20103;-69
2022/11/08 10:08:29;;;;;;;4.97;2.35;;;;;;;17.86;64.82;100719.59;5028114;28;20045;-69
2022/11/08 10:11:17;;;;;;;;;;;;;;;18.02;62.15;100730.66;5030431;28;20055;-69
2022/11/08 10:13:55;;;;;;;8.88;3.00;;;;;;;16.76;66.50;100721.41;5014912;28;20299;-69
2022/11/08 10:16:32;;;;;;;6.63;2.00;;;;;;;17.84;64.71;100717.09;5020714;28;20072;-69
2022/11/08 10:19:22;;;;;;;4.18;1.80;;;;;;;18.18;62.42;100709.81;5019196;28;20068;-69
2022/11/08 10:21:56;;;;;;;5.93;2.05;;;;;;;18.24;61.49;100703.16;5029824;28;20452;-69
2022/11/08 10:24:34;;;;;;;4.40;2.00;;;;;;;17.95;62.30;100700.28;5019388;28;20068;-70
2022/11/08 10:27:00;;;;;;;4.18;2.08;;;;;;;18.77;60.39;100693.31;5029398;28;20076;-69
2022/11/08 10:29:32;;;;;;;4.50;1.75;;;;;;;17.49;62.69;100690.75;5019891;28;20460;-68
2022/11/08 10:32:05;;;;;;;5.95;1.83;;;;;;;17.85;63.46;100680.78;5030567;28;20052;-68
2022/11/08 10:34:40;;;;;;;3.78;1.75;;;;;;;17.19;65.44;100676.47;5030146;28;20040;-69
2022/11/08 10:37:13;;;;;;;12.45;2.05;;;;;;;17.69;64.37;100675.91;5029872;28;20055;-68
2022/11/08 10:39:45;;;;;;;5.25;1.58;;;;;;;17.89;61.47;100669.78;5028611;28;20049;-67
2022/11/08 10:42:19;;;;;;;5.95;1.70;;;;;;;18.09;61.79;100665.47;5019697;28;20052;-68
2022/11/08 10:44:46;;;;;;;7.05;2.22;;;;;;;18.20;61.60;100654.81;5028456;28;20052;-67
2022/11/08 10:47:21;;;;;;;5.97;1.80;;;;;;;18.12;62.50;100645.78;5029256;28;20049;-67
2022/11/08 10:49:47;;;;;;;5.95;2.17;;;;;;;18.13;61.60;100663.41;5028948;28;20048;-67
2022/11/08 10:52:19;;;;;;;5.07;1.80;;;;;;;17.86;62.99;100653.28;5028759;28;20525;-68
2022/11/08 10:54:48;;;;;;;5.93;1.63;;;;;;;18.06;61.67;100641.88;5019771;28;20052;-68
2022/11/08 10:57:17;;;;;;;3.20;1.55;;;;;;;18.24;59.24;100642.13;5029312;28;20045;-68
2022/11/08 10:59:45;;;;;;;5.68;2.00;;;;;;;18.60;60.41;100649.59;5029794;28;20045;-68
2022/11/08 11:02:25;;;;;;;5.30;2.10;;;;;;;18.80;58.83;100643.41;5027546;28;20041;-68
2022/11/08 11:04:53;;;;;;;5.90;1.98;;;;;;;18.21;60.09;100643.22;5037744;28;20076;-67
2022/11/08 11:07:33;;;;;;;7.63;1.70;;;;;;;18.30;60.85;100628.31;5020035;28;20037;-67
2022/11/08 11:10:21;;;;;;;7.30;1.88;;;;;;;17.87;60.71;100642.56;5028719;28;20451;-67
2022/11/08 11:12:49;;;;;;;7.63;1.83;;;;;;;17.14;61.35;100645.06;5026292;28;20117;-67
2022/11/08 11:15:16;;;;;;;6.55;1.55;;;;;;;17.30;62.74;100632.25;5027746;28;20040;-67
2022/11/08 11:17:47;;;;;;;6.85;1.92;;;;;;;17.57;62.11;100621.22;5024781;28;20048;-67
2022/11/08 11:20:21;;;;;;;3.80;1.90;;;;;;;17.42;62.67;100625.97;5024202;28;20099;-68
2022/11/08 11:22:48;;;;;;;7.15;2.00;;;;;;;17.13;62.87;100624.84;5028816;28;20484;-68
2022/11/08 11:25:17;;;;;;;5.22;1.70;;;;;;;17.27;63.40;100627.19;5018778;28;20048;-68
2022/11/08 11:27:52;;;;;;;5.45;1.75;;;;;;;17.04;63.09;100614.97;5028726;28;20064;-68
2022/11/08 11:30:28;;;;;;;5.03;2.00;;;;;;;17.14;63.72;100623.88;5024737;28;20045;-68
2022/11/08 11:32:59;;;;;;;6.50;1.90;;;;;;;17.42;63.47;100619.81;5027628;28;20060;-68
2022/11/08 11:35:28;;;;;;;11.63;2.28;;;;;;;17.50;63.22;100606.78;5028634;28;20053;-68
2022/11/08 11:37:58;;;;;;;9.30;2.83;;;;;;;17.16;63.77;100611.34;5019758;28;20063;-68
2022/11/08 11:40:31;;;;;;;7.28;2.30;;;;;;;16.90;64.67;100607.28;5026858;28;20531;-67
2022/11/08 11:43:05;;;;;;;4.47;2.05;;;;;;;16.77;64.73;100590.72;5019208;28;20049;-67
2022/11/08 11:45:38;;;;;;;5.57;2.25;;;;;;;17.10;64.50;100580.06;5027706;28;20052;-67
2022/11/08 11:48:11;;;;;;;;;;;;;;;16.92;64.52;100589.47;5029858;28;20044;-67
2022/11/08 11:50:40;;;;;;;7.15;1.98;;;;;;;17.25;64.40;100583.25;5027887;28;19929;-67
2022/11/08 11:53:12;;;;;;;4.97;1.70;;;;;;;16.78;65.10;100592.38;5024859;28;20428;-67